createdAt,value
2023-05-16T00:00:34.985Z,100874.31
2023-05-16T00:03:38.853Z,100876.19
2023-05-16T00:06:41.714Z,100873.81
2023-05-16T00:09:44.324Z,100878.19
2023-05-16T00:12:51.451Z,100879.75
2023-05-16T00:15:56.145Z,100880.09
2023-05-16T00:18:59.807Z,100881.06
2023-05-16T00:22:03.237Z,100885.66
2023-05-16T00:25:06.660Z,100882.47
2023-05-16T00:28:09.277Z,100880.78
2023-05-16T00:31:13.212Z,100882.94
2023-05-16T00:34:15.881Z,100884.72
2023-05-16T00:37:18.519Z,100889.69
2023-05-16T00:40:21.408Z,100881.22
2023-05-16T00:43:24.052Z,100896.72
2023-05-16T00:46:28.072Z,100895.59
2023-05-16T00:49:31.106Z,100893.56
2023-05-16T00:52:34.022Z,100892.00
2023-05-16T00:55:36.744Z,100895.88
2023-05-16T00:58:39.377Z,100897.97
2023-05-16T01:01:44.938Z,100909.84
2023-05-16T01:04:48.249Z,100894.31
2023-05-16T01:07:50.913Z,100904.22
2023-05-16T01:11:01.504Z,100901.28
2023-05-16T01:14:22.075Z,100904.22
2023-05-16T01:17:32.252Z,100905.34
2023-05-16T01:20:42.505Z,100917.00
2023-05-16T01:23:52.799Z,100902.69
2023-05-16T01:26:57.559Z,100908.25
2023-05-16T01:30:00.127Z,100904.00
2023-05-16T01:33:02.871Z,100900.97
2023-05-16T01:36:12.423Z,100907.66
2023-05-16T01:39:22.748Z,100906.53
2023-05-16T01:42:33.868Z,100908.47
2023-05-16T01:45:41.316Z,100911.13
2023-05-16T01:48:53.900Z,100896.03
2023-05-16T01:52:01.884Z,100900.03
2023-05-16T01:55:11.667Z,100897.94
2023-05-16T01:58:17.002Z,100901.28
2023-05-16T02:01:19.710Z,100902.06
2023-05-16T02:04:24.027Z,100907.06
2023-05-16T02:07:26.940Z,100898.00
2023-05-16T02:10:29.655Z,100900.91
2023-05-16T02:13:33.577Z,100895.13
2023-05-16T02:16:36.360Z,100895.88
2023-05-16T02:19:39.009Z,100897.00
2023-05-16T02:22:42.575Z,100903.72
2023-05-16T02:25:45.203Z,100904.59
2023-05-16T02:28:49.866Z,100920.03
2023-05-16T02:31:52.459Z,100910.91
2023-05-16T02:34:55.053Z,100910.03
2023-05-16T02:37:57.981Z,100916.94
2023-05-16T02:41:00.551Z,100917.97
2023-05-16T02:44:04.558Z,100912.13
2023-05-16T02:47:07.503Z,100917.47
2023-05-16T02:50:10.656Z,100921.78
2023-05-16T02:53:13.704Z,100925.94
2023-05-16T02:56:16.324Z,100919.75
2023-05-16T02:59:20.385Z,100927.50
2023-05-16T03:02:23.094Z,100929.19
2023-05-16T03:05:27.199Z,100933.34
2023-05-16T03:08:30.178Z,100945.44
2023-05-16T03:11:32.802Z,100952.75
2023-05-16T03:14:36.747Z,100953.53
2023-05-16T03:17:39.440Z,100959.28
2023-05-16T03:20:42.084Z,100967.66
2023-05-16T03:23:44.858Z,100962.84
2023-05-16T03:26:47.444Z,100967.16
2023-05-16T03:29:51.445Z,100974.47
2023-05-16T03:32:54.133Z,100976.97
2023-05-16T03:35:56.745Z,100975.53
2023-05-16T03:38:59.390Z,100976.91
2023-05-16T03:42:02.096Z,100982.16
2023-05-16T03:45:07.544Z,100977.66
2023-05-16T03:48:10.352Z,100977.47
2023-05-16T03:51:12.986Z,100985.19
2023-05-16T03:54:15.584Z,100968.88
2023-05-16T03:57:18.330Z,100976.97
2023-05-16T04:00:22.265Z,100981.00
2023-05-16T04:03:28.510Z,100982.94
2023-05-16T04:06:31.949Z,100987.31
2023-05-16T04:09:34.516Z,100991.53
2023-05-16T04:12:37.118Z,100996.16
2023-05-16T04:15:41.078Z,101011.53
2023-05-16T04:18:43.728Z,101009.56
2023-05-16T04:21:46.423Z,101009.94
2023-05-16T04:24:49.071Z,101005.50
2023-05-16T04:27:52.523Z,101014.34
2023-05-16T04:30:56.549Z,101029.38
2023-05-16T04:33:59.215Z,101049.13
2023-05-16T04:37:01.815Z,101036.03
2023-05-16T04:40:06.579Z,101040.81
2023-05-16T04:43:09.231Z,101049.06
2023-05-16T04:46:13.513Z,101061.09
2023-05-16T04:49:16.665Z,101045.63
2023-05-16T04:52:19.907Z,101050.13
2023-05-16T04:55:22.516Z,101051.31
2023-05-16T04:58:25.169Z,101058.56
2023-05-16T05:01:29.177Z,101052.81
2023-05-16T05:04:31.883Z,101062.09
2023-05-16T05:07:34.713Z,101059.00
2023-05-16T05:10:37.508Z,101068.09
2023-05-16T05:13:40.080Z,101064.53
2023-05-16T05:16:44.023Z,101063.88
2023-05-16T05:19:46.737Z,101063.38
2023-05-16T05:22:49.438Z,101070.47
2023-05-16T05:25:52.200Z,101072.22
2023-05-16T05:29:04.612Z,101073.94
2023-05-16T05:32:09.921Z,101083.25
2023-05-16T05:35:12.598Z,101079.38
2023-05-16T05:38:15.175Z,101084.25
2023-05-16T05:41:17.774Z,101086.03
2023-05-16T05:44:20.363Z,101073.13
2023-05-16T05:47:24.463Z,101078.78
2023-05-16T05:50:27.107Z,101090.19
2023-05-16T05:53:29.758Z,101096.38
2023-05-16T05:56:32.521Z,101102.63
2023-05-16T05:59:35.144Z,101103.06
2023-05-16T06:02:39.284Z,101098.16
2023-05-16T06:05:42.368Z,101105.06
2023-05-16T06:08:44.979Z,101110.53
2023-05-16T06:11:47.739Z,101119.56
2023-05-16T06:14:50.324Z,101119.31
2023-05-16T06:17:54.307Z,101117.91
2023-05-16T06:20:56.917Z,101124.75
2023-05-16T06:23:59.580Z,101121.59
2023-05-16T06:27:02.177Z,101131.91
2023-05-16T06:30:05.587Z,101121.75
2023-05-16T06:33:09.530Z,101129.97
2023-05-16T06:36:12.159Z,101122.34
2023-05-16T06:39:14.741Z,101131.91
2023-05-16T06:42:18.016Z,101139.94
2023-05-16T06:45:20.738Z,101133.28
2023-05-16T06:48:24.987Z,101136.13
2023-05-16T06:51:27.629Z,101148.50
2023-05-16T06:54:30.366Z,101139.97
2023-05-16T06:57:33.197Z,101139.13
2023-05-16T07:00:35.940Z,101156.53
2023-05-16T07:03:40.236Z,101152.72
2023-05-16T07:06:42.964Z,101148.63
2023-05-16T07:09:45.650Z,101160.06
2023-05-16T07:12:48.431Z,101165.56
2023-05-16T07:15:51.104Z,101167.78
2023-05-16T07:18:55.089Z,101173.81
2023-05-16T07:21:57.753Z,101184.28
2023-05-16T07:25:01.157Z,101173.81
2023-05-16T07:28:04.183Z,101176.63
2023-05-16T07:31:08.284Z,101184.09
2023-05-16T07:34:12.436Z,101167.13
2023-05-16T07:37:16.169Z,101175.91
2023-05-16T07:40:20.906Z,101172.78
2023-05-16T07:43:23.515Z,101174.03
2023-05-16T07:46:26.409Z,101173.53
2023-05-16T07:49:30.409Z,101181.53
2023-05-16T07:52:33.050Z,101177.91
2023-05-16T07:55:35.774Z,101173.19
2023-05-16T07:58:39.720Z,101171.56
2023-05-16T08:01:42.380Z,101179.84
2023-05-16T08:04:46.939Z,101187.03
2023-05-16T08:07:49.717Z,101184.91
2023-05-16T08:10:52.399Z,101187.56
2023-05-16T08:13:55.054Z,101190.75
2023-05-16T08:16:57.964Z,101188.34
2023-05-16T08:23:04.768Z,101195.25
2023-05-16T08:26:07.422Z,101200.38
2023-05-16T08:29:10.217Z,101194.38
2023-05-16T08:32:13.091Z,101196.53
2023-05-16T08:35:17.183Z,101195.81
2023-05-16T08:38:19.864Z,101190.94
2023-05-16T08:41:22.876Z,101190.66
2023-05-16T08:44:25.884Z,101189.06
2023-05-16T08:47:34.103Z,101190.34
2023-05-16T08:50:38.377Z,101191.47
2023-05-16T08:53:45.959Z,101195.47
2023-05-16T08:56:50.424Z,101204.13
2023-05-16T08:59:54.230Z,101206.94
2023-05-16T09:02:57.418Z,101207.53
2023-05-16T09:06:01.533Z,101194.78
2023-05-16T09:09:07.790Z,101189.31
2023-05-16T09:12:10.638Z,101186.53
2023-05-16T09:15:13.374Z,101188.53
2023-05-16T09:18:16.067Z,101192.97
2023-05-16T09:21:20.936Z,101200.78
2023-05-16T09:24:27.008Z,101197.22
2023-05-16T09:27:32.502Z,101201.66
2023-05-16T09:30:37.204Z,101199.13
2023-05-16T09:33:43.308Z,101191.56
2023-05-16T09:36:47.449Z,101187.75
2023-05-16T09:39:51.929Z,101195.66
2023-05-16T09:43:04.301Z,101191.25
2023-05-16T09:46:07.162Z,101175.47
2023-05-16T09:49:13.397Z,101177.19
2023-05-16T09:52:17.558Z,101179.47
2023-05-16T09:55:20.494Z,101185.59
2023-05-16T09:58:29.926Z,101197.00
2023-05-16T10:01:32.644Z,101210.66
2023-05-16T10:04:36.488Z,101211.06
2023-05-16T10:07:41.278Z,101204.84
2023-05-16T10:10:44.009Z,101202.84
2023-05-16T10:13:52.940Z,101198.13
2023-05-16T10:16:57.732Z,101193.03
2023-05-16T10:20:04.510Z,101193.84
2023-05-16T10:23:13.489Z,101205.03
2023-05-16T10:26:18.333Z,101207.56
2023-05-16T10:29:21.825Z,101204.28
2023-05-16T10:32:25.550Z,101206.31
2023-05-16T10:35:28.895Z,101210.66
2023-05-16T10:38:34.780Z,101205.69
2023-05-16T10:41:37.770Z,101199.94
2023-05-16T10:44:42.766Z,101209.22
2023-05-16T10:47:55.469Z,101206.31
2023-05-16T10:50:58.184Z,101211.81
2023-05-16T10:54:07.218Z,101205.94
2023-05-16T10:57:11.980Z,101197.44
2023-05-16T11:00:23.102Z,101213.78
2023-05-16T11:03:28.291Z,101207.09
2023-05-16T11:06:32.611Z,101204.06
2023-05-16T11:09:36.635Z,101204.78
2023-05-16T11:12:44.032Z,101221.69
2023-05-16T11:15:47.113Z,101210.47
2023-05-16T11:18:51.938Z,101230.63
2023-05-16T11:22:15.517Z,101234.47
2023-05-16T11:25:39.242Z,101240.81
2023-05-16T11:28:42.024Z,101242.91
2023-05-16T11:31:44.791Z,101257.59
2023-05-16T11:34:48.273Z,101250.19
2023-05-16T11:37:51.017Z,101248.50
2023-05-16T11:40:55.187Z,101238.97
2023-05-16T11:43:57.845Z,101239.72
2023-05-16T11:47:02.501Z,101237.63
2023-05-16T11:50:06.391Z,101231.16
2023-05-16T11:53:09.426Z,101234.16
2023-05-16T11:56:13.552Z,101251.28
2023-05-16T11:59:16.500Z,101246.22
2023-05-16T12:02:19.169Z,101241.69
2023-05-16T12:05:25.369Z,101246.78
2023-05-16T12:08:28.353Z,101237.59
2023-05-16T12:11:35.008Z,101240.88
2023-05-16T12:14:38.061Z,101247.94
2023-05-16T12:17:42.174Z,101254.56
2023-05-16T12:20:45.375Z,101250.69
2023-05-16T12:23:48.086Z,101253.31
2023-05-16T12:26:54.541Z,101269.38
2023-05-16T12:29:59.424Z,101261.47
2023-05-16T12:33:07.696Z,101278.03
2023-05-16T12:36:15.484Z,101287.47
2023-05-16T12:39:18.190Z,101283.09
2023-05-16T12:42:22.169Z,101289.25
2023-05-16T12:45:25.113Z,101290.47
2023-05-16T12:48:34.307Z,101273.53
2023-05-16T12:51:37.535Z,101279.75
2023-05-16T12:54:40.156Z,101278.38
2023-05-16T12:57:45.088Z,101292.28
2023-05-16T13:00:48.567Z,101316.41
2023-05-16T13:03:51.252Z,101319.91
2023-05-16T13:09:59.851Z,101318.41
2023-05-16T13:13:04.453Z,101313.00
2023-05-16T13:16:07.793Z,101327.81
2023-05-16T13:19:10.588Z,101318.00
2023-05-16T13:22:13.461Z,101309.13
2023-05-16T13:25:16.130Z,101320.16
2023-05-16T13:28:20.106Z,101323.25
2023-05-16T13:31:23.198Z,101320.13
2023-05-16T13:34:25.959Z,101320.81
2023-05-16T13:37:28.626Z,101313.81
2023-05-16T13:40:31.257Z,101318.63
2023-05-16T13:43:35.296Z,101322.06
2023-05-16T13:46:38.450Z,101334.09
2023-05-16T13:49:41.186Z,101336.00
2023-05-16T13:52:44.331Z,101341.63
2023-05-16T13:55:47.031Z,101336.16
2023-05-16T13:59:02.035Z,101341.41
2023-05-16T14:02:06.731Z,101341.97
2023-05-16T14:05:10.481Z,101334.09
2023-05-16T14:08:14.081Z,101341.56
2023-05-16T14:11:19.526Z,101335.72
2023-05-16T14:14:23.539Z,101342.13
2023-05-16T14:17:26.886Z,101332.63
2023-05-16T14:20:29.566Z,101358.53
2023-05-16T14:23:32.209Z,101351.41
2023-05-16T14:26:34.859Z,101343.94
2023-05-16T14:29:38.880Z,101355.63
2023-05-16T14:32:41.969Z,101357.22
2023-05-16T14:35:44.644Z,101336.13
2023-05-16T14:38:49.020Z,101354.19
2023-05-16T14:41:51.655Z,101346.97
2023-05-16T14:44:55.751Z,101348.88
2023-05-16T14:47:58.434Z,101351.72
2023-05-16T14:51:01.102Z,101341.63
2023-05-16T14:54:04.065Z,101341.09
2023-05-16T14:57:07.331Z,101349.06
2023-05-16T15:00:13.691Z,101333.03
2023-05-16T15:03:17.593Z,101345.25
2023-05-16T15:06:20.559Z,101335.19
2023-05-16T15:09:23.208Z,101345.03
2023-05-16T15:12:25.825Z,101344.59
2023-05-16T15:15:29.923Z,101344.16
2023-05-16T15:18:32.589Z,101349.47
2023-05-16T15:21:35.425Z,101351.94
2023-05-16T15:24:38.171Z,101353.53
2023-05-16T15:27:40.873Z,101348.50
2023-05-16T15:30:44.855Z,101348.47
2023-05-16T15:33:48.566Z,101344.16
2023-05-16T15:36:51.784Z,101352.66
2023-05-16T15:39:54.398Z,101345.16
2023-05-16T15:42:57.052Z,101352.22
2023-05-16T15:46:01.390Z,101349.19
2023-05-16T15:49:04.046Z,101349.19
2023-05-16T15:52:06.832Z,101336.50
2023-05-16T15:55:11.844Z,101346.88
2023-05-16T15:58:14.512Z,101346.31
2023-05-16T16:01:18.536Z,101346.63
2023-05-16T16:04:23.410Z,101360.00
2023-05-16T16:07:26.299Z,101371.16
2023-05-16T16:10:28.980Z,101378.97
2023-05-16T16:13:31.979Z,101374.50
2023-05-16T16:16:37.192Z,101376.88
2023-05-16T16:19:39.897Z,101373.94
2023-05-16T16:22:42.532Z,101370.28
2023-05-16T16:25:45.201Z,101368.41
2023-05-16T16:28:50.102Z,101376.59
2023-05-16T16:31:54.211Z,101366.94
2023-05-16T16:34:57.069Z,101381.88
2023-05-16T16:38:06.611Z,101384.22
2023-05-16T16:41:10.181Z,101384.09
2023-05-16T16:44:13.633Z,101385.94
2023-05-16T16:47:17.626Z,101373.63
2023-05-16T16:50:20.309Z,101373.84
2023-05-16T16:53:22.972Z,101379.13
2023-05-16T16:56:26.398Z,101379.19
2023-05-16T16:59:29.033Z,101379.78
2023-05-16T17:02:33.059Z,101385.69
2023-05-16T17:05:35.768Z,101396.78
2023-05-16T17:08:38.404Z,101398.50
2023-05-16T17:11:42.174Z,101401.00
2023-05-16T17:14:44.843Z,101398.13
2023-05-16T17:17:49.177Z,101400.59
2023-05-16T17:20:53.114Z,101405.06
2023-05-16T17:23:57.936Z,101419.13
2023-05-16T17:27:01.640Z,101416.19
2023-05-16T17:30:05.915Z,101421.91
2023-05-16T17:33:09.960Z,101414.38
2023-05-16T17:36:12.608Z,101411.66
2023-05-16T17:39:15.300Z,101406.97
2023-05-16T17:42:17.929Z,101417.91
2023-05-16T17:45:20.632Z,101431.31
2023-05-16T17:48:24.662Z,101437.81
2023-05-16T17:51:27.430Z,101447.91
2023-05-16T17:54:32.074Z,101446.50
2023-05-16T17:57:34.787Z,101438.03
2023-05-16T18:00:38.369Z,101442.78
2023-05-16T18:03:43.369Z,101432.91
2023-05-16T18:06:46.351Z,101436.94
2023-05-16T18:09:49.211Z,101429.72
2023-05-16T18:12:51.914Z,101429.50
2023-05-16T18:15:54.542Z,101422.06
2023-05-16T18:18:58.868Z,101436.06
2023-05-16T18:22:01.595Z,101433.78
2023-05-16T18:25:05.323Z,101437.31
2023-05-16T18:28:07.989Z,101447.97
2023-05-16T18:31:10.768Z,101447.72
2023-05-16T18:34:14.745Z,101461.28
2023-05-16T18:37:17.728Z,101463.28
2023-05-16T18:40:21.345Z,101466.59
2023-05-16T18:43:23.995Z,101453.97
2023-05-16T18:46:26.633Z,101464.13
2023-05-16T18:49:33.390Z,101453.09
2023-05-16T18:52:36.911Z,101451.78
2023-05-16T18:55:39.544Z,101461.97
2023-05-16T18:58:42.630Z,101458.81
2023-05-16T19:01:45.641Z,101461.50
2023-05-16T19:04:49.720Z,101466.38
2023-05-16T19:07:52.444Z,101462.13
2023-05-16T19:10:55.244Z,101470.31
2023-05-16T19:13:57.864Z,101470.25
2023-05-16T19:17:00.475Z,101477.81
2023-05-16T19:20:05.063Z,101482.44
2023-05-16T19:23:08.347Z,101473.91
2023-05-16T19:26:10.962Z,101472.16
2023-05-16T19:29:13.585Z,101489.63
2023-05-16T19:32:16.236Z,101496.50
2023-05-16T19:35:20.278Z,101490.94
2023-05-16T19:38:24.433Z,101490.38
2023-05-16T19:41:27.490Z,101501.88
2023-05-16T19:44:30.117Z,101492.75
2023-05-16T19:47:32.911Z,101493.09
2023-05-16T19:50:37.308Z,101491.09
2023-05-16T19:53:39.962Z,101495.91
2023-05-16T19:56:42.602Z,101497.59
2023-05-16T19:59:45.215Z,101497.81
2023-05-16T20:02:47.964Z,101501.88
2023-05-16T20:05:52.145Z,101512.41
2023-05-16T20:08:54.757Z,101513.66
2023-05-16T20:11:58.797Z,101519.03
2023-05-16T20:15:01.973Z,101507.22
2023-05-16T20:18:04.942Z,101526.38
2023-05-16T20:21:08.981Z,101518.31
2023-05-16T20:24:11.639Z,101519.25
2023-05-16T20:27:14.327Z,101519.19
2023-05-16T20:30:16.963Z,101515.72
2023-05-16T20:33:19.642Z,101510.69
2023-05-16T20:36:23.780Z,101509.81
2023-05-16T20:39:27.114Z,101503.94
2023-05-16T20:42:29.779Z,101511.16
2023-05-16T20:45:32.381Z,101516.13
2023-05-16T20:48:35.076Z,101512.28
2023-05-16T20:51:39.064Z,101501.50
2023-05-16T20:54:42.204Z,101505.44
2023-05-16T20:57:44.868Z,101513.28
2023-05-16T21:00:47.488Z,101502.84
2023-05-16T21:03:50.157Z,101514.72
2023-05-16T21:06:54.181Z,101510.59
2023-05-16T21:09:56.794Z,101510.41
2023-05-16T21:12:59.460Z,101510.50
2023-05-16T21:16:02.154Z,101517.38
2023-05-16T21:19:05.201Z,101510.00
2023-05-16T21:22:09.378Z,101514.31
2023-05-16T21:25:12.028Z,101508.06
2023-05-16T21:28:14.665Z,101513.41
2023-05-16T21:31:17.323Z,101505.63
2023-05-16T21:34:19.953Z,101504.56
2023-05-16T21:37:23.940Z,101503.16
2023-05-16T21:40:28.618Z,101499.03
2023-05-16T21:43:31.232Z,101499.16
2023-05-16T21:46:33.888Z,101495.72
2023-05-16T21:49:36.513Z,101497.44
2023-05-16T21:52:41.181Z,101490.19
2023-05-16T21:55:43.886Z,101509.28
2023-05-16T21:58:46.507Z,101502.56
2023-05-16T22:01:49.125Z,101502.53
2023-05-16T22:04:53.220Z,101498.31
2023-05-16T22:07:57.265Z,101492.56
2023-05-16T22:10:59.926Z,101500.38
2023-05-16T22:14:02.623Z,101498.59
2023-05-16T22:17:06.242Z,101493.84
2023-05-16T22:20:09.715Z,101500.44
2023-05-16T22:23:13.712Z,101497.44
2023-05-16T22:26:16.349Z,101492.19
2023-05-16T22:29:19.017Z,101497.72
2023-05-16T22:32:22.203Z,101500.03
2023-05-16T22:35:25.168Z,101494.47
2023-05-16T22:38:29.197Z,101486.63
2023-05-16T22:41:32.083Z,101491.38
2023-05-16T22:44:34.784Z,101490.47
2023-05-16T22:47:37.439Z,101494.72
2023-05-16T22:50:40.154Z,101493.84
2023-05-16T22:53:44.203Z,101490.13
2023-05-16T22:56:46.867Z,101495.50
2023-05-16T22:59:49.509Z,101497.31
2023-05-16T23:02:52.369Z,101494.50
2023-05-16T23:05:55.189Z,101498.94
2023-05-16T23:09:00.033Z,101500.78
2023-05-16T23:12:02.775Z,101503.47
2023-05-16T23:15:09.875Z,101509.47
2023-05-16T23:18:12.781Z,101496.06
2023-05-16T23:21:15.535Z,101513.31
2023-05-16T23:24:19.643Z,101514.53
2023-05-16T23:27:22.361Z,101510.59
2023-05-16T23:30:25.270Z,101498.00
2023-05-16T23:33:28.233Z,101515.72
2023-05-16T23:36:31.085Z,101508.34
2023-05-16T23:39:35.074Z,101518.72
2023-05-16T23:42:37.748Z,101534.75
2023-05-16T23:45:40.442Z,101534.84
2023-05-16T23:48:43.125Z,101534.56
2023-05-16T23:51:57.537Z,101538.03
2023-05-16T23:55:02.706Z,101549.09
2023-05-16T23:58:05.343Z,101544.13
